createdAt,value
2022-09-09T00:01:10.683Z,76540.97
2022-09-09T00:02:46.986Z,76537.03
2022-09-09T00:04:20.053Z,76540.97
2022-09-09T00:06:10.467Z,76548.88
2022-09-09T00:07:50.369Z,76540.97
2022-09-09T00:09:26.774Z,76539.00
2022-09-09T00:11:06.599Z,76540.97
2022-09-09T00:13:00.458Z,76539.00
2022-09-09T00:14:33.604Z,76539.00
2022-09-09T00:16:27.058Z,76535.06
2022-09-09T00:17:59.885Z,76537.03
2022-09-09T00:19:44.394Z,76539.00
2022-09-09T00:21:18.669Z,76537.03
2022-09-09T00:23:02.355Z,76540.97
2022-09-09T00:24:56.110Z,76531.09
2022-09-09T00:26:35.130Z,76521.22
2022-09-09T00:28:21.624Z,76523.19
2022-09-09T00:29:57.714Z,76527.13
2022-09-09T00:31:31.610Z,76521.22
2022-09-09T00:33:16.461Z,76523.19
2022-09-09T00:34:51.185Z,76523.19
2022-09-09T00:36:26.868Z,76521.22
2022-09-09T00:38:02.990Z,76515.28
2022-09-09T00:39:57.958Z,76517.25
2022-09-09T00:41:36.767Z,76511.31
2022-09-09T00:43:10.164Z,76517.25
2022-09-09T00:45:18.803Z,76507.38
2022-09-09T00:47:13.080Z,76505.38
2022-09-09T00:48:53.747Z,76515.28
2022-09-09T00:50:45.181Z,76519.22
2022-09-09T00:52:21.172Z,76517.25
2022-09-09T00:53:57.420Z,76523.19
2022-09-09T00:55:30.220Z,76519.22
2022-09-09T00:57:21.970Z,76525.16
2022-09-09T00:59:06.889Z,76527.13
2022-09-09T01:00:39.804Z,76523.19
2022-09-09T01:02:18.202Z,76529.13
2022-09-09T01:04:00.785Z,76525.16
2022-09-09T01:05:34.544Z,76527.13
2022-09-09T01:07:14.064Z,76525.16
2022-09-09T01:09:06.507Z,76533.06
2022-09-09T01:10:59.564Z,76533.06
2022-09-09T01:12:35.299Z,76540.97
2022-09-09T01:14:27.216Z,76546.91
2022-09-09T01:16:02.110Z,76540.97
2022-09-09T01:17:57.076Z,76542.97
2022-09-09T01:19:40.787Z,76544.94
2022-09-09T01:21:27.271Z,76544.94
2022-09-09T01:23:09.463Z,76539.00
2022-09-09T01:24:56.838Z,76542.97
2022-09-09T01:26:52.291Z,76540.97
2022-09-09T01:28:32.091Z,76539.00
2022-09-09T01:30:14.559Z,76544.94
2022-09-09T01:31:53.820Z,76544.94
2022-09-09T01:33:27.128Z,76546.91
2022-09-09T01:34:59.996Z,76550.88
2022-09-09T01:36:43.027Z,76556.81
2022-09-09T01:38:16.315Z,76556.81
2022-09-09T01:39:49.735Z,76556.81
2022-09-09T01:41:24.041Z,76562.72
2022-09-09T01:43:06.235Z,76566.69
2022-09-09T01:44:39.631Z,76560.75
2022-09-09T01:46:13.619Z,76558.78
2022-09-09T01:47:48.043Z,76566.69
2022-09-09T01:49:50.589Z,76570.63
2022-09-09T01:51:29.951Z,76574.59
2022-09-09T01:53:05.323Z,76568.66
2022-09-09T01:54:39.557Z,76572.63
2022-09-09T01:56:17.948Z,76560.75
2022-09-09T01:57:53.670Z,76562.72
2022-09-09T01:59:55.873Z,76566.69
2022-09-09T02:01:32.143Z,76560.75
2022-09-09T02:03:14.952Z,76556.81
2022-09-09T02:05:26.193Z,76550.88
2022-09-09T02:07:01.722Z,76533.06
2022-09-09T02:08:41.629Z,76527.13
2022-09-09T02:10:19.210Z,76517.25
2022-09-09T02:12:09.964Z,76505.38
2022-09-09T02:13:50.389Z,76489.56
2022-09-09T02:15:43.041Z,76477.72
2022-09-09T02:17:18.288Z,76473.75
2022-09-09T02:19:27.047Z,76440.13
2022-09-09T02:21:08.066Z,76382.78
2022-09-09T02:22:43.229Z,76319.53
2022-09-09T02:24:17.289Z,76254.28
2022-09-09T02:25:59.260Z,76163.31
2022-09-09T02:27:32.739Z,76200.88
2022-09-09T02:29:07.758Z,76145.53
2022-09-09T02:30:42.108Z,76019.00
2022-09-09T02:32:17.693Z,75943.88
2022-09-09T02:33:55.725Z,75868.72
2022-09-09T02:35:32.105Z,75765.94
2022-09-09T02:37:05.345Z,75833.16
2022-09-09T02:38:42.497Z,75977.47
2022-09-09T02:40:19.270Z,76078.31
2022-09-09T02:41:57.880Z,76145.53
2022-09-09T02:43:37.183Z,76157.38
2022-09-09T02:45:19.124Z,75953.75
2022-09-09T02:47:00.384Z,75827.22
2022-09-09T02:48:33.327Z,75732.31
2022-09-09T02:50:09.893Z,75692.78
2022-09-09T02:51:56.800Z,75671.03
2022-09-09T02:53:32.784Z,75659.16
2022-09-09T02:55:12.534Z,75584.06
2022-09-09T02:56:51.258Z,75520.78
2022-09-09T02:58:26.047Z,75520.78
2022-09-09T03:00:09.500Z,75414.03
2022-09-09T03:01:42.551Z,75382.41
2022-09-09T03:03:20.864Z,75334.97
2022-09-09T03:04:55.904Z,75376.47
2022-09-09T03:06:29.644Z,75378.47
2022-09-09T03:08:12.117Z,75344.84
2022-09-09T03:09:45.811Z,75249.97
2022-09-09T03:11:18.789Z,75190.66
2022-09-09T03:12:52.178Z,75265.78
2022-09-09T03:14:28.767Z,75206.47
2022-09-09T03:16:02.142Z,75153.09
2022-09-09T03:17:38.796Z,75101.72
2022-09-09T03:19:12.445Z,75157.06
2022-09-09T03:20:45.384Z,75161.00
2022-09-09T03:22:18.215Z,75123.47
2022-09-09T03:23:52.218Z,75054.28
2022-09-09T03:25:26.194Z,75109.63
2022-09-09T03:26:59.984Z,75137.28
2022-09-09T03:28:33.071Z,75163.00
2022-09-09T03:30:08.863Z,75123.47
2022-09-09T03:31:42.279Z,75190.66
2022-09-09T03:33:16.368Z,75109.63
2022-09-09T03:34:51.052Z,75151.13
2022-09-09T03:36:24.855Z,75078.00
2022-09-09T03:37:57.961Z,75099.75
2022-09-09T03:39:32.092Z,74998.94
2022-09-09T03:41:09.038Z,75050.31
2022-09-09T03:42:42.750Z,75168.91
2022-09-09T03:44:16.557Z,75390.31
2022-09-09T03:45:50.207Z,75423.94
2022-09-09T03:47:23.305Z,75327.06
2022-09-09T03:49:00.260Z,75378.47
2022-09-09T03:50:34.703Z,75151.13
2022-09-09T03:52:07.594Z,74969.28
2022-09-09T03:53:41.104Z,75125.44
2022-09-09T03:55:14.039Z,75293.44
2022-09-09T03:56:47.187Z,75441.72
2022-09-09T03:58:20.296Z,75524.75
2022-09-09T03:59:54.034Z,75623.59
2022-09-09T04:01:27.510Z,75671.03
2022-09-09T04:03:01.032Z,75674.97
2022-09-09T04:04:33.910Z,75657.19
2022-09-09T04:06:09.352Z,75621.59
2022-09-09T04:07:43.277Z,75552.41
2022-09-09T04:09:16.550Z,75548.47
2022-09-09T04:10:49.970Z,75435.78
2022-09-09T04:12:23.984Z,75184.72
2022-09-09T04:13:56.929Z,75044.38
2022-09-09T04:15:30.569Z,75050.31
2022-09-09T04:17:07.427Z,74931.72
2022-09-09T04:18:40.673Z,74848.72
2022-09-09T04:20:14.175Z,74801.28
2022-09-09T04:21:47.244Z,74939.63
2022-09-09T04:23:21.560Z,74882.31
2022-09-09T04:24:54.624Z,74973.22
2022-09-09T04:26:27.565Z,75161.00
2022-09-09T04:28:00.661Z,75224.28
2022-09-09T04:29:34.674Z,75224.28
2022-09-09T04:31:10.433Z,75226.25
2022-09-09T04:32:45.059Z,75174.84
2022-09-09T04:34:18.183Z,75105.66
2022-09-09T04:35:51.608Z,75099.75
2022-09-09T04:37:26.201Z,75117.53
2022-09-09T04:38:59.283Z,75147.19
2022-09-09T04:40:32.999Z,75153.09
2022-09-09T04:42:05.850Z,75074.03
2022-09-09T04:43:41.607Z,75002.88
2022-09-09T04:45:15.450Z,75022.66
2022-09-09T04:46:48.897Z,75036.47
2022-09-09T04:48:22.457Z,75115.56
2022-09-09T04:49:56.189Z,75129.38
2022-09-09T04:51:29.603Z,75172.88
2022-09-09T04:53:06.466Z,75076.00
2022-09-09T04:54:42.669Z,74836.84
2022-09-09T04:56:17.343Z,74658.97
2022-09-09T04:58:05.569Z,74647.09
2022-09-09T04:59:41.809Z,74623.38
2022-09-09T05:01:20.226Z,74749.88
2022-09-09T05:02:54.906Z,74886.25
2022-09-09T05:04:27.678Z,74987.06
2022-09-09T05:06:05.731Z,75032.53
2022-09-09T05:07:38.765Z,75054.28
2022-09-09T05:09:12.321Z,75113.56
2022-09-09T05:10:45.288Z,75184.72
2022-09-09T05:12:19.290Z,75212.41
2022-09-09T05:13:58.257Z,75259.84
2022-09-09T05:15:31.283Z,75303.34
2022-09-09T05:17:04.371Z,75372.53
2022-09-09T05:18:37.646Z,75396.25
2022-09-09T05:20:15.564Z,75439.75
2022-09-09T05:21:51.363Z,75457.53
2022-09-09T05:23:29.275Z,75497.06
2022-09-09T05:25:02.989Z,75574.16
2022-09-09T05:26:35.986Z,75631.50
2022-09-09T05:28:09.530Z,75651.25
2022-09-09T05:29:44.670Z,75659.16
2022-09-09T05:31:18.986Z,75661.16
2022-09-09T05:32:57.210Z,75671.03
2022-09-09T05:34:30.567Z,75680.91
2022-09-09T05:36:05.715Z,75718.47
2022-09-09T05:37:39.288Z,75722.44
2022-09-09T05:39:13.377Z,75722.44
2022-09-09T05:40:50.603Z,75754.06
2022-09-09T05:42:23.455Z,75736.28
2022-09-09T05:43:56.675Z,75728.38
2022-09-09T05:45:30.034Z,75752.09
2022-09-09T05:47:03.101Z,75767.91
2022-09-09T05:48:37.214Z,75750.13
2022-09-09T05:50:10.257Z,75742.19
2022-09-09T05:51:44.210Z,75688.81
2022-09-09T05:53:19.635Z,75667.06
2022-09-09T05:54:52.840Z,75645.34
2022-09-09T05:56:27.423Z,75625.56
2022-09-09T05:58:02.524Z,75603.81
2022-09-09T05:59:35.916Z,75611.72
2022-09-09T06:01:11.163Z,75601.84
2022-09-09T06:02:45.173Z,75631.50
2022-09-09T06:04:25.548Z,75619.63
2022-09-09T06:05:58.996Z,75619.63
2022-09-09T06:07:32.060Z,75599.88
2022-09-09T06:09:08.229Z,75607.78
2022-09-09T06:10:41.805Z,75621.59
2022-09-09T06:12:14.684Z,75584.06
2022-09-09T06:13:49.041Z,75586.03
2022-09-09T06:15:22.278Z,75560.31
2022-09-09T06:16:55.062Z,75593.94
2022-09-09T06:18:30.902Z,75582.06
2022-09-09T06:20:05.727Z,75540.56
2022-09-09T06:21:39.420Z,75540.56
2022-09-09T06:23:14.222Z,75528.69
2022-09-09T06:24:47.674Z,75485.19
2022-09-09T06:26:25.472Z,75421.94
2022-09-09T06:27:59.591Z,75412.06
2022-09-09T06:29:32.470Z,75406.13
2022-09-09T06:31:07.042Z,75408.09
2022-09-09T06:32:40.573Z,75400.19
2022-09-09T06:34:14.282Z,75406.13
2022-09-09T06:35:54.903Z,75421.94
2022-09-09T06:37:28.809Z,75429.84
2022-09-09T06:39:01.930Z,75414.03
2022-09-09T06:40:35.904Z,75416.00
2022-09-09T06:42:09.887Z,75431.84
2022-09-09T06:44:02.212Z,75473.34
2022-09-09T06:45:41.050Z,75477.28
2022-09-09T06:47:15.080Z,75493.13
2022-09-09T06:48:49.448Z,75508.94
2022-09-09T06:50:23.054Z,75540.56
2022-09-09T06:51:56.718Z,75540.56
2022-09-09T06:53:30.863Z,75558.34
2022-09-09T06:55:05.163Z,75552.41
2022-09-09T06:56:44.380Z,75576.13
2022-09-09T06:58:28.125Z,75584.06
2022-09-09T07:00:02.276Z,75595.91
2022-09-09T07:01:37.376Z,75601.84
2022-09-09T07:03:13.049Z,75611.72
2022-09-09T07:04:46.169Z,75627.53
2022-09-09T07:06:26.112Z,75635.44
2022-09-09T07:07:59.882Z,75647.31
2022-09-09T07:09:34.419Z,75665.09
2022-09-09T07:11:12.233Z,75663.13
2022-09-09T07:12:51.685Z,75684.88
2022-09-09T07:14:24.693Z,75682.91
2022-09-09T07:16:12.201Z,75671.03
2022-09-09T07:17:45.019Z,75694.75
2022-09-09T07:19:18.428Z,75698.72
2022-09-09T07:20:54.523Z,75698.72
2022-09-09T07:22:29.607Z,75706.63
2022-09-09T07:24:03.680Z,75714.53
2022-09-09T07:25:37.880Z,75714.53
2022-09-09T07:27:10.830Z,75728.38
2022-09-09T07:28:45.080Z,75730.34
2022-09-09T07:30:24.160Z,75742.19
2022-09-09T07:32:00.702Z,75760.00
2022-09-09T07:33:39.323Z,75754.06
2022-09-09T07:35:13.082Z,75761.97
2022-09-09T07:36:46.970Z,75781.75
2022-09-09T07:38:20.913Z,75789.66
2022-09-09T07:39:54.740Z,75793.59
2022-09-09T07:41:33.497Z,75797.56
2022-09-09T07:43:07.155Z,75793.59
2022-09-09T07:44:41.061Z,75789.66
2022-09-09T07:46:23.791Z,75791.63
2022-09-09T07:47:58.350Z,75797.56
2022-09-09T07:49:32.865Z,75797.56
2022-09-09T07:51:21.167Z,75807.44
2022-09-09T07:52:57.607Z,75819.31
2022-09-09T07:54:33.022Z,75817.31
2022-09-09T07:56:10.581Z,75825.25
2022-09-09T07:57:43.999Z,75819.31
2022-09-09T07:59:18.118Z,75827.22
2022-09-09T08:00:56.221Z,75837.09
2022-09-09T08:02:30.712Z,75839.06
2022-09-09T08:04:05.207Z,75854.91
2022-09-09T08:05:40.926Z,75856.88
2022-09-09T08:07:14.670Z,75860.81
2022-09-09T08:08:54.476Z,75872.69
2022-09-09T08:10:27.723Z,75872.69
2022-09-09T08:12:02.820Z,75878.63
2022-09-09T08:13:37.241Z,75860.81
2022-09-09T08:15:10.538Z,75854.91
2022-09-09T08:16:45.945Z,75843.03
2022-09-09T08:18:21.092Z,75841.06
2022-09-09T08:19:55.548Z,75827.22
2022-09-09T08:21:34.498Z,75821.28
2022-09-09T08:23:07.335Z,75809.41
2022-09-09T08:24:42.209Z,75799.53
2022-09-09T08:26:17.496Z,75797.56
2022-09-09T08:27:50.388Z,75781.75
2022-09-09T08:29:24.391Z,75767.91
2022-09-09T08:31:06.437Z,75738.25
2022-09-09T08:32:40.994Z,75710.56
2022-09-09T08:34:17.089Z,75674.97
2022-09-09T08:35:54.448Z,75625.56
2022-09-09T08:37:27.513Z,75562.31
2022-09-09T08:39:01.326Z,75512.88
2022-09-09T08:40:41.109Z,75465.44
2022-09-09T08:42:24.236Z,75439.75
2022-09-09T08:44:08.446Z,75441.72
2022-09-09T08:46:05.423Z,75441.72
2022-09-09T08:47:39.734Z,75447.66
2022-09-09T08:49:27.473Z,75443.69
2022-09-09T08:51:03.542Z,75412.06
2022-09-09T08:53:09.354Z,75412.06
2022-09-09T08:54:52.208Z,75421.94
2022-09-09T08:56:28.645Z,75402.19
2022-09-09T08:58:15.571Z,75392.28
2022-09-09T08:59:51.314Z,75386.38
2022-09-09T09:01:45.798Z,75378.47
2022-09-09T09:03:42.747Z,75390.31
2022-09-09T09:05:28.968Z,75323.09
2022-09-09T09:07:17.041Z,75455.56
2022-09-09T09:09:03.665Z,75469.38
2022-09-09T09:10:42.523Z,75410.09
2022-09-09T09:12:20.723Z,75457.53
2022-09-09T09:14:06.239Z,75501.03
2022-09-09T09:15:39.908Z,75479.28
2022-09-09T09:17:16.544Z,75514.84
2022-09-09T09:18:49.445Z,75544.50
2022-09-09T09:20:36.481Z,75540.56
2022-09-09T09:22:24.107Z,75542.53
2022-09-09T09:24:02.428Z,75599.88
2022-09-09T09:25:41.196Z,75639.41
2022-09-09T09:27:27.407Z,75661.16
2022-09-09T09:29:00.743Z,75649.28
2022-09-09T09:30:37.511Z,75637.44
2022-09-09T09:32:16.556Z,75633.47
2022-09-09T09:33:51.077Z,75655.22
2022-09-09T09:35:26.331Z,75674.97
2022-09-09T09:36:59.775Z,75667.06
2022-09-09T09:40:28.971Z,75580.09
2022-09-09T09:42:09.939Z,75593.94
2022-09-09T09:43:47.708Z,75570.22
2022-09-09T09:45:29.898Z,75558.34
2022-09-09T09:47:22.975Z,75552.41
2022-09-09T09:49:14.976Z,75530.66
2022-09-09T09:50:49.922Z,75548.47
2022-09-09T09:52:25.314Z,75544.50
2022-09-09T09:54:24.375Z,75562.31
2022-09-09T09:56:02.382Z,75544.50
2022-09-09T09:57:36.136Z,75562.31
2022-09-09T09:59:40.366Z,75570.22
2022-09-09T10:01:30.959Z,75568.22
2022-09-09T10:03:20.720Z,75607.78
2022-09-09T10:05:08.201Z,75611.72
2022-09-09T10:06:42.313Z,75593.94
2022-09-09T10:09:14.483Z,75570.22
2022-09-09T10:11:02.227Z,75568.22
2022-09-09T10:12:53.306Z,75536.59
2022-09-09T10:14:36.920Z,75516.84
2022-09-09T10:16:17.909Z,75508.94
2022-09-09T10:17:56.567Z,75497.06
2022-09-09T10:19:33.921Z,75495.09
2022-09-09T10:21:22.247Z,75512.88
2022-09-09T10:23:06.959Z,75544.50
2022-09-09T10:24:50.115Z,75530.66
2022-09-09T10:26:45.591Z,75520.78
2022-09-09T10:28:27.303Z,75536.59
2022-09-09T10:30:10.063Z,75516.84
2022-09-09T10:31:46.248Z,75487.19
2022-09-09T10:33:33.755Z,75499.03
2022-09-09T10:35:18.315Z,75558.34
2022-09-09T10:36:52.383Z,75584.06
2022-09-09T10:38:44.703Z,75595.91
2022-09-09T10:40:18.191Z,75595.91
2022-09-09T10:42:09.388Z,75584.06
2022-09-09T10:44:01.939Z,75580.09
2022-09-09T10:45:45.975Z,75584.06
2022-09-09T10:47:37.564Z,75582.06
2022-09-09T10:49:13.960Z,75576.13
2022-09-09T10:51:07.623Z,75568.22
2022-09-09T10:52:46.460Z,75572.19
2022-09-09T10:54:19.049Z,75588.00
2022-09-09T10:56:06.207Z,75593.94
2022-09-09T10:57:44.356Z,75597.88
2022-09-09T10:59:23.947Z,75595.91
2022-09-09T11:01:03.677Z,75617.66
2022-09-09T11:02:37.285Z,75593.94
2022-09-09T11:04:34.044Z,75619.63
2022-09-09T11:06:07.986Z,75627.53
2022-09-09T11:07:45.949Z,75631.50
2022-09-09T11:09:20.544Z,75619.63
2022-09-09T11:11:02.459Z,75611.72
2022-09-09T11:12:37.853Z,75605.78
2022-09-09T11:14:17.510Z,75607.78
2022-09-09T11:15:52.723Z,75611.72
2022-09-09T11:17:28.739Z,75599.88
2022-09-09T11:19:04.165Z,75595.91
2022-09-09T11:20:36.928Z,75584.06
2022-09-09T11:22:24.843Z,75588.00
2022-09-09T11:24:00.968Z,75593.94
2022-09-09T11:25:38.624Z,75576.13
2022-09-09T11:27:17.501Z,75580.09
2022-09-09T11:29:04.924Z,75536.59
2022-09-09T11:30:57.546Z,75465.44
2022-09-09T11:32:42.605Z,75416.00
2022-09-09T11:34:20.991Z,75378.47
2022-09-09T11:35:54.150Z,75382.41
2022-09-09T11:37:48.221Z,75433.81
2022-09-09T11:39:21.386Z,75418.00
2022-09-09T11:41:08.540Z,75396.25
2022-09-09T11:42:41.348Z,75431.84
2022-09-09T11:44:18.585Z,75418.00
2022-09-09T11:46:00.486Z,75386.38
2022-09-09T11:47:34.918Z,75404.16
2022-09-09T11:49:08.453Z,75390.31
2022-09-09T11:50:41.501Z,75370.53
2022-09-09T11:52:20.358Z,75390.31
2022-09-09T11:53:54.662Z,75414.03
2022-09-09T11:55:35.900Z,75445.66
2022-09-09T11:57:22.434Z,75457.53
2022-09-09T11:59:00.183Z,75465.44
2022-09-09T12:00:41.525Z,75463.47
2022-09-09T12:02:19.557Z,75467.41
2022-09-09T12:03:55.870Z,75461.47
2022-09-09T12:05:47.114Z,75459.50
2022-09-09T12:07:22.719Z,75433.81
2022-09-09T12:08:59.060Z,75423.94
2022-09-09T12:10:37.331Z,75423.94
2022-09-09T12:12:13.153Z,75425.91
2022-09-09T12:13:54.166Z,75437.75
2022-09-09T12:15:30.241Z,75425.91
2022-09-09T12:17:32.124Z,75427.88
2022-09-09T12:19:06.910Z,75433.81
2022-09-09T12:20:40.271Z,75425.91
2022-09-09T12:22:18.775Z,75425.91
2022-09-09T12:23:53.653Z,75421.94
2022-09-09T12:25:49.077Z,75416.00
2022-09-09T12:27:58.818Z,75412.06
2022-09-09T12:29:50.394Z,75416.00
2022-09-09T12:31:30.037Z,75421.94
2022-09-09T12:33:10.025Z,75419.97
2022-09-09T12:34:45.396Z,75414.03
2022-09-09T12:36:24.333Z,75429.84
2022-09-09T12:38:08.593Z,75433.81
2022-09-09T12:39:51.023Z,75433.81
2022-09-09T12:41:30.225Z,75429.84
2022-09-09T12:43:03.611Z,75433.81
2022-09-09T12:44:36.488Z,75441.72
2022-09-09T12:46:15.387Z,75441.72
2022-09-09T12:47:48.454Z,75445.66
2022-09-09T12:49:27.526Z,75461.47
2022-09-09T12:51:01.703Z,75473.34
2022-09-09T12:52:38.061Z,75489.16
2022-09-09T12:54:15.423Z,75503.00
2022-09-09T12:56:01.969Z,75514.84
2022-09-09T12:57:38.096Z,75520.78
2022-09-09T12:59:23.060Z,75520.78
2022-09-09T13:00:59.310Z,75512.88
2022-09-09T13:02:32.121Z,75524.75
2022-09-09T13:04:21.006Z,75560.31
2022-09-09T13:05:54.851Z,75603.81
2022-09-09T13:07:27.756Z,75635.44
2022-09-09T13:09:01.440Z,75655.22
2022-09-09T13:11:01.840Z,75667.06
2022-09-09T13:12:34.595Z,75678.94
2022-09-09T13:14:07.769Z,75671.03
2022-09-09T13:15:40.671Z,75671.03
2022-09-09T13:17:18.963Z,75661.16
2022-09-09T13:18:52.072Z,75647.31
2022-09-09T13:20:25.725Z,75635.44
2022-09-09T13:21:58.775Z,75639.41
2022-09-09T13:23:33.666Z,75635.44
2022-09-09T13:25:20.685Z,75639.41
2022-09-09T13:26:57.812Z,75649.28
2022-09-09T13:28:33.790Z,75641.38
2022-09-09T13:30:27.584Z,75653.25
2022-09-09T13:32:07.565Z,75659.16
2022-09-09T13:33:40.396Z,75659.16
2022-09-09T13:35:24.257Z,75663.13
2022-09-09T13:37:04.192Z,75673.00
2022-09-09T13:38:41.990Z,75674.97
2022-09-09T13:40:19.225Z,75682.91
2022-09-09T13:41:51.903Z,75671.03
2022-09-09T13:43:26.746Z,75682.91
2022-09-09T13:45:01.391Z,75704.63
2022-09-09T13:46:37.475Z,75698.72
2022-09-09T13:48:11.542Z,75694.75
2022-09-09T13:49:44.344Z,75698.72
2022-09-09T13:51:30.097Z,75706.63
2022-09-09T13:53:02.848Z,75726.38
2022-09-09T13:54:36.276Z,75726.38
2022-09-09T13:56:10.289Z,75742.19
2022-09-09T13:57:52.045Z,75744.19
2022-09-09T13:59:30.751Z,75754.06
2022-09-09T14:01:16.580Z,75754.06
2022-09-09T14:02:49.935Z,75748.13
2022-09-09T14:04:23.099Z,75763.94
2022-09-09T14:05:55.849Z,75773.84
2022-09-09T14:07:28.893Z,75777.78
2022-09-09T14:09:01.628Z,75775.81
2022-09-09T14:10:38.348Z,75789.66
2022-09-09T14:12:15.278Z,75799.53
2022-09-09T14:13:48.144Z,75789.66
2022-09-09T14:15:21.307Z,75805.47
2022-09-09T14:16:54.173Z,75801.50
2022-09-09T14:18:26.841Z,75791.63
2022-09-09T14:19:59.667Z,75801.50
2022-09-09T14:21:32.614Z,75797.56
2022-09-09T14:23:05.335Z,75809.41
2022-09-09T14:24:38.004Z,75805.47
2022-09-09T14:26:10.704Z,75803.50
2022-09-09T14:27:43.649Z,75809.41
2022-09-09T14:29:16.546Z,75811.41
2022-09-09T14:30:49.313Z,75815.34
2022-09-09T14:32:22.597Z,75829.19
2022-09-09T14:33:55.452Z,75841.06
2022-09-09T14:35:28.435Z,75848.97
2022-09-09T14:37:01.130Z,75848.97
2022-09-09T14:38:35.643Z,75839.06
2022-09-09T14:40:08.824Z,75852.91
2022-09-09T14:41:42.832Z,75864.78
2022-09-09T14:43:16.174Z,75860.81
2022-09-09T14:44:49.249Z,75874.66
2022-09-09T14:46:22.338Z,75870.72
2022-09-09T14:47:55.333Z,75870.72
2022-09-09T14:49:28.041Z,75874.66
2022-09-09T14:51:14.214Z,75872.69
2022-09-09T14:52:47.899Z,75872.69
2022-09-09T14:54:22.262Z,75880.59
2022-09-09T14:56:03.915Z,75882.56
2022-09-09T14:57:37.363Z,75900.38
2022-09-09T14:59:11.166Z,75896.41
2022-09-09T15:00:44.062Z,75902.34
2022-09-09T15:02:16.671Z,75908.28
2022-09-09T15:03:53.351Z,75908.28
2022-09-09T15:05:26.182Z,75920.13
2022-09-09T15:07:00.175Z,75924.09
2022-09-09T15:08:32.835Z,75943.88
2022-09-09T15:10:06.198Z,75939.91
2022-09-09T15:11:39.222Z,75935.94
2022-09-09T15:13:12.009Z,75937.94
2022-09-09T15:14:44.681Z,75933.97
2022-09-09T15:16:21.306Z,75943.88
2022-09-09T15:17:54.138Z,75939.91
2022-09-09T15:19:27.084Z,75933.97
2022-09-09T15:21:00.829Z,75928.03
2022-09-09T15:22:34.931Z,75924.09
2022-09-09T15:24:09.589Z,75935.94
2022-09-09T15:25:53.157Z,75928.03
2022-09-09T15:27:25.937Z,75924.09
2022-09-09T15:29:00.635Z,75933.97
2022-09-09T15:30:33.478Z,75928.03
2022-09-09T15:32:06.522Z,75937.94
2022-09-09T15:33:39.251Z,75943.88
2022-09-09T15:35:12.313Z,75949.78
2022-09-09T15:36:47.281Z,75945.84
2022-09-09T15:38:20.199Z,75947.81
2022-09-09T15:39:53.083Z,75953.75
2022-09-09T15:41:26.224Z,75955.72
2022-09-09T15:42:59.025Z,75951.78
2022-09-09T15:44:39.276Z,75955.72
2022-09-09T15:46:28.614Z,75963.63
2022-09-09T15:48:04.539Z,75975.50
2022-09-09T15:49:37.508Z,75987.34
2022-09-09T15:51:31.132Z,75989.34
2022-09-09T15:53:04.012Z,75997.25
2022-09-09T15:54:39.860Z,76024.91
2022-09-09T15:56:12.832Z,76026.91
2022-09-09T15:57:45.478Z,76038.75
2022-09-09T15:59:18.291Z,76050.63
2022-09-09T16:00:50.905Z,76054.56
2022-09-09T16:02:23.722Z,76054.56
2022-09-09T16:03:56.544Z,76062.50
2022-09-09T16:05:29.220Z,76070.41
2022-09-09T16:07:05.628Z,76078.31
2022-09-09T16:08:39.441Z,76084.22
2022-09-09T16:10:14.824Z,76074.34
2022-09-09T16:11:48.376Z,76078.31
2022-09-09T16:13:20.986Z,76086.22
2022-09-09T16:14:53.892Z,76090.16
2022-09-09T16:16:28.122Z,76090.16
2022-09-09T16:18:00.984Z,76096.09
2022-09-09T16:19:34.108Z,76098.06
2022-09-09T16:21:07.132Z,76102.03
2022-09-09T16:22:41.165Z,76111.91
2022-09-09T16:24:15.493Z,76113.91
2022-09-09T16:25:55.199Z,76121.81
2022-09-09T16:27:27.850Z,76133.66
2022-09-09T16:29:01.325Z,76135.63
2022-09-09T16:30:34.125Z,76145.53
2022-09-09T16:32:06.907Z,76153.44
2022-09-09T16:33:39.721Z,76157.38
2022-09-09T16:35:12.865Z,76165.31
2022-09-09T16:36:46.182Z,76179.13
2022-09-09T16:38:18.719Z,76185.06
2022-09-09T16:39:51.513Z,76189.03
2022-09-09T16:41:24.776Z,76204.84
2022-09-09T16:42:57.936Z,76204.84
2022-09-09T16:44:31.212Z,76196.94
2022-09-09T16:46:05.843Z,76194.97
2022-09-09T16:47:38.490Z,76204.84
2022-09-09T16:49:12.255Z,76216.72
2022-09-09T16:50:45.834Z,76220.66
2022-09-09T16:52:20.639Z,76224.63
2022-09-09T16:53:54.398Z,76224.63
2022-09-09T16:55:27.678Z,76216.72
2022-09-09T16:57:00.705Z,76220.66
2022-09-09T16:58:33.518Z,76232.53
2022-09-09T17:00:08.240Z,76248.34
2022-09-09T17:01:42.357Z,76248.34
2022-09-09T17:03:15.119Z,76256.25
2022-09-09T17:04:48.603Z,76260.22
2022-09-09T17:06:21.276Z,76260.22
2022-09-09T17:07:55.939Z,76260.22
2022-09-09T17:09:32.694Z,76256.25
2022-09-09T17:11:05.986Z,76260.22
2022-09-09T17:12:42.154Z,76260.22
2022-09-09T17:14:16.886Z,76260.22
2022-09-09T17:15:49.782Z,76264.16
2022-09-09T17:17:31.585Z,76270.09
2022-09-09T17:19:05.423Z,76283.94
2022-09-09T17:20:46.575Z,76283.94
2022-09-09T17:22:21.307Z,76289.88
2022-09-09T17:23:55.384Z,76283.94
2022-09-09T17:25:28.199Z,76283.94
2022-09-09T17:27:03.686Z,76279.97
2022-09-09T17:28:37.707Z,76276.03
2022-09-09T17:30:10.786Z,76276.03
2022-09-09T17:31:43.523Z,76278.00
2022-09-09T17:33:16.463Z,76270.09
2022-09-09T17:34:49.502Z,76279.97
2022-09-09T17:36:24.379Z,76283.94
2022-09-09T17:37:57.523Z,76291.84
2022-09-09T17:39:33.974Z,76301.72
2022-09-09T17:41:07.450Z,76315.56
2022-09-09T17:42:41.871Z,76317.53
2022-09-09T17:44:14.683Z,76323.47
2022-09-09T17:45:47.995Z,76329.41
2022-09-09T17:47:21.455Z,76331.38
2022-09-09T17:48:57.574Z,76333.38
2022-09-09T17:50:30.431Z,76335.34
2022-09-09T17:52:03.596Z,76331.38
2022-09-09T17:53:43.376Z,76347.19
2022-09-09T17:55:18.471Z,76349.19
2022-09-09T17:56:51.645Z,76380.81
2022-09-09T17:58:24.877Z,76392.69
2022-09-09T17:59:57.715Z,76390.69
2022-09-09T18:01:32.598Z,76394.66
2022-09-09T18:03:05.584Z,76400.59
2022-09-09T18:04:38.725Z,76394.66
2022-09-09T18:06:18.778Z,76396.63
2022-09-09T18:07:51.767Z,76390.69
2022-09-09T18:09:26.144Z,76382.78
2022-09-09T18:10:59.013Z,76382.78
2022-09-09T18:12:32.336Z,76376.88
2022-09-09T18:14:05.997Z,76378.84
2022-09-09T18:15:49.358Z,76370.94
2022-09-09T18:17:22.742Z,76368.94
2022-09-09T18:18:56.223Z,76378.84
2022-09-09T18:20:29.321Z,76382.78
2022-09-09T18:22:05.215Z,76398.63
2022-09-09T18:23:43.727Z,76406.53
2022-09-09T18:25:16.770Z,76406.53
2022-09-09T18:26:50.640Z,76410.47
2022-09-09T18:28:25.039Z,76408.50
2022-09-09T18:29:58.109Z,76418.38
2022-09-09T18:31:31.112Z,76422.34
2022-09-09T18:33:04.421Z,76446.06
2022-09-09T18:34:37.482Z,76459.91
2022-09-09T18:36:15.370Z,76471.78
2022-09-09T18:39:39.107Z,76481.66
2022-09-09T18:41:22.257Z,76485.63
2022-09-09T18:42:55.065Z,76483.63
2022-09-09T18:44:29.063Z,76483.63
2022-09-09T18:46:05.600Z,76483.63
2022-09-09T18:47:38.596Z,76495.50
2022-09-09T18:49:12.046Z,76493.53
2022-09-09T18:50:44.947Z,76509.34
2022-09-09T18:52:18.026Z,76513.28
2022-09-09T18:53:51.834Z,76513.28
2022-09-09T18:55:24.747Z,76513.28
2022-09-09T18:56:58.483Z,76505.38
2022-09-09T18:58:32.906Z,76505.38
2022-09-09T19:00:07.997Z,76495.50
2022-09-09T19:01:40.939Z,76495.50
2022-09-09T19:03:13.783Z,76493.53
2022-09-09T19:04:46.696Z,76497.47
2022-09-09T19:06:21.404Z,76503.41
2022-09-09T19:07:54.603Z,76501.44